sensor_id;sensor_type;location;lat;lon;timestamp;pressure;altitude;pressure_sealevel;temperature;humidity
68376;BME280;55318;52.068;5.188;2023-02-08T00:01:17;104006.0;;;-0.59;88.02
68376;BME280;55318;52.068;5.188;2023-02-08T00:02:55;104001.0;;;-0.6;88.38
68376;BME280;55318;52.068;5.188;2023-02-08T00:04:31;104003.0;;;-0.59;88.44
68376;BME280;55318;52.068;5.188;2023-02-08T00:07:44;104007.0;;;-0.63;88.58
68376;BME280;55318;52.068;5.188;2023-02-08T00:09:20;104003.0;;;-0.62;88.55
68376;BME280;55318;52.068;5.188;2023-02-08T00:10:57;104000.0;;;-0.63;88.34
68376;BME280;55318;52.068;5.188;2023-02-08T00:14:10;103999.0;;;-0.7;88.01
68376;BME280;55318;52.068;5.188;2023-02-08T00:15:46;103996.0;;;-0.7;88.26
68376;BME280;55318;52.068;5.188;2023-02-08T00:17:22;103992.0;;;-0.74;88.46
68376;BME280;55318;52.068;5.188;2023-02-08T00:18:58;103994.0;;;-0.75;88.54
68376;BME280;55318;52.068;5.188;2023-02-08T00:22:14;103995.0;;;-0.78;88.77
68376;BME280;55318;52.068;5.188;2023-02-08T00:23:50;103997.0;;;-0.73;89.21
68376;BME280;55318;52.068;5.188;2023-02-08T00:28:38;103995.0;;;-0.61;89.76
68376;BME280;55318;52.068;5.188;2023-02-08T00:30:14;103993.0;;;-0.48;89.42
68376;BME280;55318;52.068;5.188;2023-02-08T00:31:50;103986.99999999999;;;-0.48;89.19
68376;BME280;55318;52.068;5.188;2023-02-08T00:35:02;103986.99999999999;;;-0.54;88.8
68376;BME280;55318;52.068;5.188;2023-02-08T00:36:39;103979.0;;;-0.59;88.61
68376;BME280;55318;52.068;5.188;2023-02-08T00:38:15;103980.0;;;-0.62;88.33
68376;BME280;55318;52.068;5.188;2023-02-08T00:39:51;103976.0;;;-0.71;88.26
68376;BME280;55318;52.068;5.188;2023-02-08T00:43:03;103972.0;;;-0.77;88.5
68376;BME280;55318;52.068;5.188;2023-02-08T00:44:39;103967.0;;;-0.82;87.93
68376;BME280;55318;52.068;5.188;2023-02-08T00:46:15;103968.0;;;-0.8;88.2
68376;BME280;55318;52.068;5.188;2023-02-08T00:49:28;103963.00000000001;;;-0.87;88.63
68376;BME280;55318;52.068;5.188;2023-02-08T00:51:05;103961.99999999999;;;-0.86;88.89
68376;BME280;55318;52.068;5.188;2023-02-08T00:52:43;103961.99999999999;;;-0.85;89.02
68376;BME280;55318;52.068;5.188;2023-02-08T00:55:56;103966.00000000001;;;-0.88;88.88
68376;BME280;55318;52.068;5.188;2023-02-08T00:57:34;103969.0;;;-0.89;88.83
68376;BME280;55318;52.068;5.188;2023-02-08T00:59:11;103967.0;;;-0.89;89.13
68376;BME280;55318;52.068;5.188;2023-02-08T01:00:49;103963.00000000001;;;-0.84;88.84
68376;BME280;55318;52.068;5.188;2023-02-08T01:04:04;103965.00000000001;;;-0.89;88.6
68376;BME280;55318;52.068;5.188;2023-02-08T01:05:41;103964.00000000001;;;-0.78;88.23
68376;BME280;55318;52.068;5.188;2023-02-08T01:07:17;103963.00000000001;;;-0.88;88.81
68376;BME280;55318;52.068;5.188;2023-02-08T01:10:31;103959.99999999999;;;-0.89;89.56
68376;BME280;55318;52.068;5.188;2023-02-08T01:12:09;103961.99999999999;;;-0.88;89.33
68376;BME280;55318;52.068;5.188;2023-02-08T01:13:46;103966.00000000001;;;-0.96;89.17
68376;BME280;55318;52.068;5.188;2023-02-08T01:16:59;103967.0;;;-0.82;88.95
68376;BME280;55318;52.068;5.188;2023-02-08T01:18:35;103967.0;;;-0.85;88.74
68376;BME280;55318;52.068;5.188;2023-02-08T01:20:12;103967.0;;;-0.93;89.12
68376;BME280;55318;52.068;5.188;2023-02-08T01:21:48;103972.0;;;-0.98;89.07
68376;BME280;55318;52.068;5.188;2023-02-08T01:25:01;103971.0;;;-0.95;89.36
68376;BME280;55318;52.068;5.188;2023-02-08T01:26:37;103973.0;;;-0.97;89.01
68376;BME280;55318;52.068;5.188;2023-02-08T01:28:14;103978.0;;;-1.0;88.79
68376;BME280;55318;52.068;5.188;2023-02-08T01:31:30;103976.0;;;-1.06;88.78
68376;BME280;55318;52.068;5.188;2023-02-08T01:33:07;103978.0;;;-1.07;89.05
68376;BME280;55318;52.068;5.188;2023-02-08T01:34:43;103973.0;;;-1.02;88.94
68376;BME280;55318;52.068;5.188;2023-02-08T01:36:20;103977.0;;;-1.03;88.52
68376;BME280;55318;52.068;5.188;2023-02-08T01:39:33;103975.0;;;-1.06;88.61
68376;BME280;55318;52.068;5.188;2023-02-08T01:41:14;103977.0;;;-1.08;88.57
68376;BME280;55318;52.068;5.188;2023-02-08T01:42:51;103971.0;;;-1.07;88.54
68376;BME280;55318;52.068;5.188;2023-02-08T01:47:07;103966.00000000001;;;-1.09;88.67
68376;BME280;55318;52.068;5.188;2023-02-08T01:50:22;103964.00000000001;;;-1.13;88.27
68376;BME280;55318;52.068;5.188;2023-02-08T01:52:03;103958.99999999999;;;-1.15;88.31
68376;BME280;55318;52.068;5.188;2023-02-08T01:53:45;103961.99999999999;;;-1.18;88.46
68376;BME280;55318;52.068;5.188;2023-02-08T01:55:25;103958.99999999999;;;-1.2;88.74
68376;BME280;55318;52.068;5.188;2023-02-08T01:58:53;103955.0;;;-1.24;88.71
68376;BME280;55318;52.068;5.188;2023-02-08T02:00:31;103958.99999999999;;;-1.21;88.62
68376;BME280;55318;52.068;5.188;2023-02-08T02:02:10;103958.0;;;-1.25;88.68
68376;BME280;55318;52.068;5.188;2023-02-08T02:03:48;103963.00000000001;;;-1.24;88.65
68376;BME280;55318;52.068;5.188;2023-02-08T02:08:50;103957.0;;;-1.17;88.79
68376;BME280;55318;52.068;5.188;2023-02-08T02:10:33;103958.0;;;-1.2;88.87
68376;BME280;55318;52.068;5.188;2023-02-08T02:12:11;103951.0;;;-1.22;88.94
68376;BME280;55318;52.068;5.188;2023-02-08T02:15:26;103953.0;;;-1.25;89.19
68376;BME280;55318;52.068;5.188;2023-02-08T02:17:03;103954.0;;;-1.22;89.73
68376;BME280;55318;52.068;5.188;2023-02-08T02:18:39;103948.0;;;-1.26;89.51
68376;BME280;55318;52.068;5.188;2023-02-08T02:20:21;103949.0;;;-1.26;89.04
68376;BME280;55318;52.068;5.188;2023-02-08T02:24:24;103947.0;;;-1.25;89.07
68376;BME280;55318;52.068;5.188;2023-02-08T02:27:08;103942.0;;;-1.28;89.1
68376;BME280;55318;52.068;5.188;2023-02-08T02:29:26;103942.0;;;-1.2;89.26
68376;BME280;55318;52.068;5.188;2023-02-08T02:33:19;103933.99999999999;;;-1.26;88.96
68376;BME280;55318;52.068;5.188;2023-02-08T02:35:53;103933.99999999999;;;-1.15;89.5
68376;BME280;55318;52.068;5.188;2023-02-08T02:37:46;103934.99999999999;;;-1.13;90.11
68376;BME280;55318;52.068;5.188;2023-02-08T02:39:34;103936.99999999999;;;-1.14;89.43
68376;BME280;55318;52.068;5.188;2023-02-08T02:43:44;103938.00000000001;;;-1.13;89.44
68376;BME280;55318;52.068;5.188;2023-02-08T02:45:27;103933.99999999999;;;-1.26;88.95
68376;BME280;55318;52.068;5.188;2023-02-08T02:48:58;103930.0;;;-1.25;89.05
68376;BME280;55318;52.068;5.188;2023-02-08T02:50:42;103930.0;;;-1.18;88.83
68376;BME280;55318;52.068;5.188;2023-02-08T02:52:24;103930.0;;;-1.23;88.8
68376;BME280;55318;52.068;5.188;2023-02-08T02:54:07;103928.0;;;-1.31;88.93
68376;BME280;55318;52.068;5.188;2023-02-08T02:57:32;103929.0;;;-1.36;88.78
68376;BME280;55318;52.068;5.188;2023-02-08T02:59:11;103929.0;;;-1.36;88.95
68376;BME280;55318;52.068;5.188;2023-02-08T03:00:52;103931.0;;;-1.31;88.92
68376;BME280;55318;52.068;5.188;2023-02-08T03:02:29;103928.0;;;-1.31;89.05
68376;BME280;55318;52.068;5.188;2023-02-08T03:05:49;103921.0;;;-1.28;88.72
68376;BME280;55318;52.068;5.188;2023-02-08T03:07:59;103922.0;;;-1.26;88.75
68376;BME280;55318;52.068;5.188;2023-02-08T03:09:47;103919.0;;;-1.23;88.86
68376;BME280;55318;52.068;5.188;2023-02-08T03:11:36;103920.0;;;-1.26;88.8
68376;BME280;55318;52.068;5.188;2023-02-08T03:13:23;103921.0;;;-1.29;89.03
68376;BME280;55318;52.068;5.188;2023-02-08T03:15:15;103917.0;;;-1.29;88.7
68376;BME280;55318;52.068;5.188;2023-02-08T03:17:08;103911.99999999999;;;-1.25;88.55
68376;BME280;55318;52.068;5.188;2023-02-08T03:19:03;103908.0;;;-1.21;88.16
68376;BME280;55318;52.068;5.188;2023-02-08T03:22:33;103907.0;;;-1.25;88.16
68376;BME280;55318;52.068;5.188;2023-02-08T03:24:25;103907.0;;;-1.22;88.23
68376;BME280;55318;52.068;5.188;2023-02-08T03:26:09;103907.0;;;-1.29;88.3
68376;BME280;55318;52.068;5.188;2023-02-08T03:27:59;103909.99999999999;;;-1.22;88.43
68376;BME280;55318;52.068;5.188;2023-02-08T03:29:44;103917.0;;;-1.19;88.54
68376;BME280;55318;52.068;5.188;2023-02-08T03:31:31;103917.0;;;-1.17;88.93
68376;BME280;55318;52.068;5.188;2023-02-08T03:34:57;103921.0;;;-1.08;88.65
68376;BME280;55318;52.068;5.188;2023-02-08T03:36:41;103917.0;;;-1.07;88.03
68376;BME280;55318;52.068;5.188;2023-02-08T03:38:24;103917.0;;;-1.13;87.81
68376;BME280;55318;52.068;5.188;2023-02-08T03:40:08;103918.0;;;-1.17;88.09
68376;BME280;55318;52.068;5.188;2023-02-08T03:43:31;103917.0;;;-1.18;87.95
68376;BME280;55318;52.068;5.188;2023-02-08T03:45:15;103918.0;;;-1.17;87.97
68376;BME280;55318;52.068;5.188;2023-02-08T03:46:56;103922.0;;;-1.21;87.65
68376;BME280;55318;52.068;5.188;2023-02-08T03:48:37;103920.0;;;-1.15;87.07
68376;BME280;55318;52.068;5.188;2023-02-08T03:50:17;103920.0;;;-1.27;87.81
68376;BME280;55318;52.068;5.188;2023-02-08T03:53:40;103924.0;;;-1.26;87.77
68376;BME280;55318;52.068;5.188;2023-02-08T03:55:21;103928.0;;;-1.05;87.21
68376;BME280;55318;52.068;5.188;2023-02-08T03:57:04;103928.0;;;-1.07;87.51
68376;BME280;55318;52.068;5.188;2023-02-08T03:58:49;103930.0;;;-1.19;87.49
68376;BME280;55318;52.068;5.188;2023-02-08T04:02:17;103922.0;;;-1.28;87.85
68376;BME280;55318;52.068;5.188;2023-02-08T04:03:57;103927.0;;;-1.31;87.58
68376;BME280;55318;52.068;5.188;2023-02-08T04:05:35;103927.0;;;-1.39;87.56
68376;BME280;55318;52.068;5.188;2023-02-08T04:07:12;103925.0;;;-1.42;87.69
68376;BME280;55318;52.068;5.188;2023-02-08T04:10:26;103930.0;;;-1.46;87.68
68376;BME280;55318;52.068;5.188;2023-02-08T04:12:03;103928.0;;;-1.49;87.73
68376;BME280;55318;52.068;5.188;2023-02-08T04:13:40;103931.0;;;-1.51;87.61
68376;BME280;55318;52.068;5.188;2023-02-08T04:16:54;103928.0;;;-1.55;87.76
68376;BME280;55318;52.068;5.188;2023-02-08T04:18:30;103929.0;;;-1.55;87.76
68376;BME280;55318;52.068;5.188;2023-02-08T04:20:07;103933.0;;;-1.53;87.53
68376;BME280;55318;52.068;5.188;2023-02-08T04:21:44;103930.0;;;-1.58;87.9
68376;BME280;55318;52.068;5.188;2023-02-08T04:24:57;103927.0;;;-1.65;88.29
68376;BME280;55318;52.068;5.188;2023-02-08T04:26:34;103927.0;;;-1.68;88.26
68376;BME280;55318;52.068;5.188;2023-02-08T04:28:11;103929.0;;;-1.72;88.44
68376;BME280;55318;52.068;5.188;2023-02-08T04:31:23;103928.0;;;-1.68;88.56
68376;BME280;55318;52.068;5.188;2023-02-08T04:32:59;103928.0;;;-1.66;88.54
68376;BME280;55318;52.068;5.188;2023-02-08T04:34:35;103927.0;;;-1.65;88.69
68376;BME280;55318;52.068;5.188;2023-02-08T04:37:48;103932.0;;;-1.71;88.61
68376;BME280;55318;52.068;5.188;2023-02-08T04:39:24;103930.0;;;-1.68;88.68
68376;BME280;55318;52.068;5.188;2023-02-08T04:41:00;103924.0;;;-1.65;88.58
68376;BME280;55318;52.068;5.188;2023-02-08T04:42:36;103922.0;;;-1.63;88.42
68376;BME280;55318;52.068;5.188;2023-02-08T04:45:50;103918.0;;;-1.67;88.16
68376;BME280;55318;52.068;5.188;2023-02-08T04:47:27;103916.00000000001;;;-1.76;88.16
68376;BME280;55318;52.068;5.188;2023-02-08T04:49:03;103911.99999999999;;;-1.83;88.2
68376;BME280;55318;52.068;5.188;2023-02-08T04:52:17;103914.00000000001;;;-1.84;88.32
68376;BME280;55318;52.068;5.188;2023-02-08T04:53:53;103908.99999999999;;;-1.8;88.12
68376;BME280;55318;52.068;5.188;2023-02-08T04:58:41;103901.0;;;-1.89;88.59
68376;BME280;55318;52.068;5.188;2023-02-08T05:00:18;103901.0;;;-1.91;88.38
68376;BME280;55318;52.068;5.188;2023-02-08T05:01:54;103898.0;;;-1.95;88.31
68376;BME280;55318;52.068;5.188;2023-02-08T05:03:30;103899.0;;;-1.96;88.45
68376;BME280;55318;52.068;5.188;2023-02-08T05:06:44;103902.0;;;-1.94;88.46
68376;BME280;55318;52.068;5.188;2023-02-08T05:08:20;103900.0;;;-1.94;88.3
68376;BME280;55318;52.068;5.188;2023-02-08T05:09:56;103903.0;;;-1.99;88.26
68376;BME280;55318;52.068;5.188;2023-02-08T05:13:08;103897.0;;;-2.02;88.74
68376;BME280;55318;52.068;5.188;2023-02-08T05:14:44;103899.0;;;-1.95;88.28
68376;BME280;55318;52.068;5.188;2023-02-08T05:16:20;103899.0;;;-1.95;88.13
68376;BME280;55318;52.068;5.188;2023-02-08T05:19:33;103902.0;;;-2.03;88.23
68376;BME280;55318;52.068;5.188;2023-02-08T05:21:09;103902.0;;;-2.02;88.06
68376;BME280;55318;52.068;5.188;2023-02-08T05:22:46;103896.0;;;-2.02;88.21
68376;BME280;55318;52.068;5.188;2023-02-08T05:24:23;103900.0;;;-2.11;87.91
68376;BME280;55318;52.068;5.188;2023-02-08T05:27:41;103900.0;;;-2.1;87.96
68376;BME280;55318;52.068;5.188;2023-02-08T05:29:18;103897.0;;;-2.15;87.96
68376;BME280;55318;52.068;5.188;2023-02-08T05:30:53;103900.0;;;-2.12;88.17
68376;BME280;55318;52.068;5.188;2023-02-08T05:34:06;103897.0;;;-2.12;88.17
68376;BME280;55318;52.068;5.188;2023-02-08T05:35:43;103898.0;;;-2.14;88.02
68376;BME280;55318;52.068;5.188;2023-02-08T05:37:19;103900.0;;;-2.17;88.28
68376;BME280;55318;52.068;5.188;2023-02-08T05:40:32;103897.0;;;-2.12;88.22
68376;BME280;55318;52.068;5.188;2023-02-08T05:42:09;103894.0;;;-2.1;88.37
68376;BME280;55318;52.068;5.188;2023-02-08T05:43:45;103894.0;;;-2.06;88.33
68376;BME280;55318;52.068;5.188;2023-02-08T05:45:21;103889.00000000001;;;-2.0;88.18
68376;BME280;55318;52.068;5.188;2023-02-08T05:48:34;103890.00000000001;;;-2.04;88.02
68376;BME280;55318;52.068;5.188;2023-02-08T05:50:10;103894.0;;;-1.98;87.99
68376;BME280;55318;52.068;5.188;2023-02-08T05:51:46;103897.0;;;-2.06;87.77
68376;BME280;55318;52.068;5.188;2023-02-08T05:54:59;103902.0;;;-2.1;87.73
68376;BME280;55318;52.068;5.188;2023-02-08T05:56:36;103897.0;;;-2.11;88.12
68376;BME280;55318;52.068;5.188;2023-02-08T05:58:12;103888.00000000001;;;-2.08;87.77
68376;BME280;55318;52.068;5.188;2023-02-08T06:01:24;103892.0;;;-2.19;87.66
68376;BME280;55318;52.068;5.188;2023-02-08T06:03:00;103882.0;;;-2.09;87.86
68376;BME280;55318;52.068;5.188;2023-02-08T06:04:36;103883.99999999999;;;-2.1;88.06
68376;BME280;55318;52.068;5.188;2023-02-08T06:06:13;103880.0;;;-1.94;87.94
68376;BME280;55318;52.068;5.188;2023-02-08T06:09:25;103877.0;;;-1.62;87.42
68376;BME280;55318;52.068;5.188;2023-02-08T06:11:01;103875.0;;;-1.44;87.0
68376;BME280;55318;52.068;5.188;2023-02-08T06:12:37;103869.0;;;-1.25;86.63
68376;BME280;55318;52.068;5.188;2023-02-08T06:15:49;103874.0;;;-1.13;85.99
68376;BME280;55318;52.068;5.188;2023-02-08T06:17:26;103873.0;;;-1.08;85.75
68376;BME280;55318;52.068;5.188;2023-02-08T06:19:03;103874.0;;;-0.97;85.39
68376;BME280;55318;52.068;5.188;2023-02-08T06:22:15;103875.0;;;-1.02;85.37
68376;BME280;55318;52.068;5.188;2023-02-08T06:23:52;103875.0;;;-1.06;85.4
68376;BME280;55318;52.068;5.188;2023-02-08T06:25:28;103882.0;;;-0.9;85.11
68376;BME280;55318;52.068;5.188;2023-02-08T06:28:40;103880.0;;;-0.96;85.07
68376;BME280;55318;52.068;5.188;2023-02-08T06:30:17;103889.00000000001;;;-1.1;84.99
68376;BME280;55318;52.068;5.188;2023-02-08T06:31:54;103889.00000000001;;;-1.08;85.07
68376;BME280;55318;52.068;5.188;2023-02-08T06:33:30;103892.0;;;-1.15;85.01
68376;BME280;55318;52.068;5.188;2023-02-08T06:36:44;103888.00000000001;;;-1.2;85.22
68376;BME280;55318;52.068;5.188;2023-02-08T06:38:21;103884.99999999999;;;-1.32;85.02
68376;BME280;55318;52.068;5.188;2023-02-08T06:39:58;103888.00000000001;;;-1.36;84.76
68376;BME280;55318;52.068;5.188;2023-02-08T06:43:10;103886.99999999999;;;-1.48;85.44
68376;BME280;55318;52.068;5.188;2023-02-08T06:44:48;103891.00000000001;;;-1.46;85.82
68376;BME280;55318;52.068;5.188;2023-02-08T06:46:25;103892.0;;;-1.4;85.35
68376;BME280;55318;52.068;5.188;2023-02-08T06:48:01;103896.0;;;-1.31;85.29
68376;BME280;55318;52.068;5.188;2023-02-08T06:51:13;103898.0;;;-1.29;85.33
68376;BME280;55318;52.068;5.188;2023-02-08T06:52:49;103898.0;;;-1.18;84.94
68376;BME280;55318;52.068;5.188;2023-02-08T06:54:26;103900.0;;;-1.15;85.2
68376;BME280;55318;52.068;5.188;2023-02-08T06:57:39;103895.0;;;-1.07;84.58
68376;BME280;55318;52.068;5.188;2023-02-08T06:59:15;103891.00000000001;;;-1.13;85.5
68376;BME280;55318;52.068;5.188;2023-02-08T07:00:51;103889.00000000001;;;-1.22;85.33
68376;BME280;55318;52.068;5.188;2023-02-08T07:04:04;103889.00000000001;;;-1.27;85.4
68376;BME280;55318;52.068;5.188;2023-02-08T07:05:40;103882.0;;;-1.11;85.11
68376;BME280;55318;52.068;5.188;2023-02-08T07:07:17;103878.0;;;-1.11;85.32
68376;BME280;55318;52.068;5.188;2023-02-08T07:10:30;103873.0;;;-0.84;84.77
68376;BME280;55318;52.068;5.188;2023-02-08T07:12:08;103874.0;;;-0.76;84.07
68376;BME280;55318;52.068;5.188;2023-02-08T07:13:45;103868.0;;;-0.76;83.46
68376;BME280;55318;52.068;5.188;2023-02-08T07:15:22;103868.0;;;-0.66;83.3
68376;BME280;55318;52.068;5.188;2023-02-08T07:18:35;103867.0;;;-0.62;83.0
68376;BME280;55318;52.068;5.188;2023-02-08T07:20:12;103869.0;;;-0.53;82.93
68376;BME280;55318;52.068;5.188;2023-02-08T07:21:49;103877.0;;;-0.45;82.09
68376;BME280;55318;52.068;5.188;2023-02-08T07:25:03;103883.99999999999;;;-0.43;82.19
68376;BME280;55318;52.068;5.188;2023-02-08T07:26:40;103888.00000000001;;;-0.34;81.5
68376;BME280;55318;52.068;5.188;2023-02-08T07:28:16;103895.0;;;-0.33;81.67
68376;BME280;55318;52.068;5.188;2023-02-08T07:29:53;103894.0;;;-0.43;81.34
68376;BME280;55318;52.068;5.188;2023-02-08T07:33:05;103896.0;;;-0.44;82.12
68376;BME280;55318;52.068;5.188;2023-02-08T07:34:41;103899.0;;;-0.52;82.41
68376;BME280;55318;52.068;5.188;2023-02-08T07:36:17;103900.0;;;-0.48;82.23
68376;BME280;55318;52.068;5.188;2023-02-08T07:39:30;103902.0;;;-0.41;81.91
68376;BME280;55318;52.068;5.188;2023-02-08T07:41:09;103897.0;;;-0.34;81.98
68376;BME280;55318;52.068;5.188;2023-02-08T07:42:47;103894.0;;;-0.31;81.96
68376;BME280;55318;52.068;5.188;2023-02-08T07:46:04;103889.00000000001;;;-0.09;81.47
68376;BME280;55318;52.068;5.188;2023-02-08T07:47:41;103882.0;;;-0.11;81.06
68376;BME280;55318;52.068;5.188;2023-02-08T07:49:17;103875.0;;;0.09;81.02
68376;BME280;55318;52.068;5.188;2023-02-08T07:50:53;103873.0;;;0.29;80.16
68376;BME280;55318;52.068;5.188;2023-02-08T07:54:06;103880.0;;;0.46;80.08
68376;BME280;55318;52.068;5.188;2023-02-08T07:55:44;103875.0;;;0.58;78.66
68376;BME280;55318;52.068;5.188;2023-02-08T07:57:21;103879.0;;;0.82;77.91
68376;BME280;55318;52.068;5.188;2023-02-08T08:00:33;103879.0;;;1.02;76.99
68376;BME280;55318;52.068;5.188;2023-02-08T08:02:09;103874.0;;;1.2;76.13
68376;BME280;55318;52.068;5.188;2023-02-08T08:03:45;103877.0;;;1.53;75.5
68376;BME280;55318;52.068;5.188;2023-02-08T08:06:59;103869.0;;;1.67;74.56
68376;BME280;55318;52.068;5.188;2023-02-08T08:08:35;103864.00000000001;;;1.73;74.27
68376;BME280;55318;52.068;5.188;2023-02-08T08:10:11;103853.0;;;2.02;73.94
68376;BME280;55318;52.068;5.188;2023-02-08T08:11:47;103853.0;;;2.41;71.44
68376;BME280;55318;52.068;5.188;2023-02-08T08:15:00;103855.0;;;2.7;70.98
68376;BME280;55318;52.068;5.188;2023-02-08T08:16:36;103857.0;;;2.79;70.69
68376;BME280;55318;52.068;5.188;2023-02-08T08:18:13;103851.0;;;2.94;69.81
68376;BME280;55318;52.068;5.188;2023-02-08T08:21:26;103857.0;;;3.04;68.58
68376;BME280;55318;52.068;5.188;2023-02-08T08:23:02;103865.00000000001;;;3.16;67.83
68376;BME280;55318;52.068;5.188;2023-02-08T08:24:38;103863.00000000001;;;3.21;67.81
68376;BME280;55318;52.068;5.188;2023-02-08T08:27:56;103856.0;;;3.26;67.47
68376;BME280;55318;52.068;5.188;2023-02-08T08:29:33;103851.0;;;3.45;66.6
68376;BME280;55318;52.068;5.188;2023-02-08T08:31:13;103853.0;;;3.72;66.3
68376;BME280;55318;52.068;5.188;2023-02-08T08:32:50;103854.0;;;3.79;65.2
68376;BME280;55318;52.068;5.188;2023-02-08T08:36:06;103856.0;;;4.09;63.79
68376;BME280;55318;52.068;5.188;2023-02-08T08:37:42;103853.0;;;4.18;62.87
68376;BME280;55318;52.068;5.188;2023-02-08T08:39:18;103851.0;;;4.12;64.45
68376;BME280;55318;52.068;5.188;2023-02-08T08:42:30;103854.0;;;4.32;62.26
68376;BME280;55318;52.068;5.188;2023-02-08T08:44:08;103850.0;;;4.16;62.39
68376;BME280;55318;52.068;5.188;2023-02-08T08:45:44;103855.0;;;4.26;62.48
68376;BME280;55318;52.068;5.188;2023-02-08T08:47:20;103854.0;;;4.24;62.18
68376;BME280;55318;52.068;5.188;2023-02-08T08:50:33;103857.0;;;4.36;62.54
68376;BME280;55318;52.068;5.188;2023-02-08T08:52:10;103853.0;;;4.28;62.02
68376;BME280;55318;52.068;5.188;2023-02-08T08:53:47;103853.0;;;4.37;63.7
68376;BME280;55318;52.068;5.188;2023-02-08T08:57:01;103851.0;;;4.7;61.65
68376;BME280;55318;52.068;5.188;2023-02-08T08:58:38;103849.0;;;4.78;61.37
68376;BME280;55318;52.068;5.188;2023-02-08T09:00:15;103847.0;;;4.87;61.6
68376;BME280;55318;52.068;5.188;2023-02-08T09:03:27;103848.0;;;5.16;61.7
68376;BME280;55318;52.068;5.188;2023-02-08T09:05:07;103845.0;;;5.4;61.21
68376;BME280;55318;52.068;5.188;2023-02-08T09:06:43;103848.0;;;5.55;58.6
68376;BME280;55318;52.068;5.188;2023-02-08T09:08:19;103845.0;;;5.36;58.67
68376;BME280;55318;52.068;5.188;2023-02-08T09:11:32;103845.0;;;5.33;59.11
68376;BME280;55318;52.068;5.188;2023-02-08T09:13:08;103848.0;;;5.36;59.99
68376;BME280;55318;52.068;5.188;2023-02-08T09:14:45;103844.0;;;5.44;59.81
68376;BME280;55318;52.068;5.188;2023-02-08T09:18:00;103844.0;;;5.43;60.14
68376;BME280;55318;52.068;5.188;2023-02-08T09:19:36;103846.0;;;5.57;58.79
68376;BME280;55318;52.068;5.188;2023-02-08T09:21:13;103847.0;;;5.4;59.21
68376;BME280;55318;52.068;5.188;2023-02-08T09:22:52;103854.0;;;5.57;58.21
68376;BME280;55318;52.068;5.188;2023-02-08T09:26:09;103852.0;;;5.8;58.06
68376;BME280;55318;52.068;5.188;2023-02-08T09:27:45;103853.0;;;6.06;58.05
68376;BME280;55318;52.068;5.188;2023-02-08T09:29:22;103855.0;;;5.72;57.32
68376;BME280;55318;52.068;5.188;2023-02-08T09:32:43;103858.0;;;5.77;57.47
68376;BME280;55318;52.068;5.188;2023-02-08T09:34:19;103857.0;;;6.03;57.38
68376;BME280;55318;52.068;5.188;2023-02-08T09:35:56;103858.99999999999;;;5.59;58.02
68376;BME280;55318;52.068;5.188;2023-02-08T09:37:33;103858.99999999999;;;5.82;57.77
68376;BME280;55318;52.068;5.188;2023-02-08T09:40:57;103861.99999999999;;;5.58;58.02
68376;BME280;55318;52.068;5.188;2023-02-08T09:42:52;103861.99999999999;;;5.31;57.81
68376;BME280;55318;52.068;5.188;2023-02-08T09:44:45;103866.00000000001;;;5.25;59.11
68376;BME280;55318;52.068;5.188;2023-02-08T09:46:28;103865.00000000001;;;5.44;59.43
68376;BME280;55318;52.068;5.188;2023-02-08T09:48:15;103865.00000000001;;;5.54;58.84
68376;BME280;55318;52.068;5.188;2023-02-08T09:51:42;103859.99999999999;;;5.48;59.73
68376;BME280;55318;52.068;5.188;2023-02-08T09:53:27;103864.00000000001;;;5.41;59.17
68376;BME280;55318;52.068;5.188;2023-02-08T09:55:20;103859.99999999999;;;5.5;59.42
68376;BME280;55318;52.068;5.188;2023-02-08T09:57:15;103861.99999999999;;;5.31;58.23
68376;BME280;55318;52.068;5.188;2023-02-08T09:58:54;103864.00000000001;;;5.36;58.58
68376;BME280;55318;52.068;5.188;2023-02-08T10:00:34;103859.99999999999;;;5.09;59.88
68376;BME280;55318;52.068;5.188;2023-02-08T10:04:01;103857.0;;;5.33;58.85
68376;BME280;55318;52.068;5.188;2023-02-08T10:05:41;103865.00000000001;;;5.19;59.3
68376;BME280;55318;52.068;5.188;2023-02-08T10:07:17;103863.00000000001;;;5.12;59.98
68376;BME280;55318;52.068;5.188;2023-02-08T10:08:53;103864.00000000001;;;5.14;61.29
68376;BME280;55318;52.068;5.188;2023-02-08T10:12:23;103863.00000000001;;;5.31;60.37
68376;BME280;55318;52.068;5.188;2023-02-08T10:14:19;103864.00000000001;;;5.12;60.48
68376;BME280;55318;52.068;5.188;2023-02-08T10:16:29;103865.00000000001;;;4.87;60.37
68376;BME280;55318;52.068;5.188;2023-02-08T10:18:23;103869.0;;;4.91;60.95
68376;BME280;55318;52.068;5.188;2023-02-08T10:20:15;103870.0;;;4.76;61.13
68376;BME280;55318;52.068;5.188;2023-02-08T10:22:01;103869.0;;;4.67;60.56
68376;BME280;55318;52.068;5.188;2023-02-08T10:23:58;103867.0;;;4.75;60.38
68376;BME280;55318;52.068;5.188;2023-02-08T10:25:48;103867.0;;;4.82;60.53
68376;BME280;55318;52.068;5.188;2023-02-08T10:29:41;103867.0;;;4.76;61.04
68376;BME280;55318;52.068;5.188;2023-02-08T10:32:59;103873.0;;;4.86;60.32
68376;BME280;55318;52.068;5.188;2023-02-08T10:34:42;103871.0;;;4.59;60.08
68376;BME280;55318;52.068;5.188;2023-02-08T10:36:24;103875.0;;;4.58;61.37
68376;BME280;55318;52.068;5.188;2023-02-08T10:40:06;103874.0;;;4.87;61.29
68376;BME280;55318;52.068;5.188;2023-02-08T10:41:54;103877.0;;;4.92;60.88
68376;BME280;55318;52.068;5.188;2023-02-08T10:43:36;103881.0;;;4.7;59.46
68376;BME280;55318;52.068;5.188;2023-02-08T10:45:21;103878.0;;;4.87;60.06
68376;BME280;55318;52.068;5.188;2023-02-08T10:47:08;103878.0;;;4.79;59.54
68376;BME280;55318;52.068;5.188;2023-02-08T10:48:58;103878.0;;;4.74;60.1
68376;BME280;55318;52.068;5.188;2023-02-08T10:52:18;103877.0;;;4.79;60.42
68376;BME280;55318;52.068;5.188;2023-02-08T10:53:55;103870.0;;;4.93;60.24
68376;BME280;55318;52.068;5.188;2023-02-08T10:55:34;103870.0;;;4.82;60.18
68376;BME280;55318;52.068;5.188;2023-02-08T10:57:16;103864.00000000001;;;4.99;60.23
68376;BME280;55318;52.068;5.188;2023-02-08T11:00:36;103861.99999999999;;;4.99;59.71
68376;BME280;55318;52.068;5.188;2023-02-08T11:02:20;103869.0;;;5.13;59.05
68376;BME280;55318;52.068;5.188;2023-02-08T11:04:02;103866.00000000001;;;5.11;59.43